createdAt,value
2023-04-15T00:01:47.630Z,100127.44
2023-04-15T00:04:15.900Z,100128.31
2023-04-15T00:06:43.999Z,100133.16
2023-04-15T00:09:12.684Z,100125.78
2023-04-15T00:11:42.113Z,100129.63
2023-04-15T00:14:11.417Z,100122.25
2023-04-15T00:16:39.788Z,100115.72
2023-04-15T00:19:08.358Z,100119.22
2023-04-15T00:21:37.041Z,100123.09
2023-04-15T00:24:05.353Z,100118.41
2023-04-15T00:26:33.389Z,100122.06
2023-04-15T00:29:02.911Z,100119.06
2023-04-15T00:31:32.981Z,100111.34
2023-04-15T00:34:02.413Z,100103.66
2023-04-15T00:36:31.729Z,100112.34
2023-04-15T00:39:00.061Z,100107.81
2023-04-15T00:41:28.602Z,100102.47
2023-04-15T00:43:56.782Z,100109.66
2023-04-15T00:46:29.838Z,100108.16
2023-04-15T00:48:58.121Z,100102.97
2023-04-15T00:51:26.319Z,100107.66
2023-04-15T00:53:54.363Z,100110.69
2023-04-15T00:56:24.491Z,100103.47
2023-04-15T00:58:55.242Z,100100.13
2023-04-15T01:01:25.981Z,100103.81
2023-04-15T01:03:54.374Z,100100.78
2023-04-15T01:06:22.514Z,100099.13
2023-04-15T01:08:50.875Z,100099.63
2023-04-15T01:11:19.468Z,100092.91
2023-04-15T01:13:48.613Z,100103.28
2023-04-15T01:16:17.946Z,100099.09
2023-04-15T01:18:47.557Z,100091.91
2023-04-15T01:21:15.639Z,100103.97
2023-04-15T01:23:48.458Z,100092.91
2023-04-15T01:26:18.614Z,100092.38
2023-04-15T01:28:46.818Z,100091.22
2023-04-15T01:31:16.562Z,100094.75
2023-04-15T01:33:44.691Z,100096.09
2023-04-15T01:36:12.817Z,100095.91
2023-04-15T01:38:41.198Z,100096.94
2023-04-15T01:41:09.244Z,100094.25
2023-04-15T01:43:38.753Z,100087.88
2023-04-15T01:46:07.090Z,100075.28
2023-04-15T01:48:35.450Z,100079.47
2023-04-15T01:51:04.823Z,100086.88
2023-04-15T01:53:33.483Z,100083.00
2023-04-15T01:56:01.574Z,100079.66
2023-04-15T01:58:29.490Z,100080.00
2023-04-15T02:00:58.861Z,100082.03
2023-04-15T02:03:27.740Z,100087.38
2023-04-15T02:05:56.620Z,100086.03
2023-04-15T02:08:24.603Z,100073.13
2023-04-15T02:10:52.997Z,100076.31
2023-04-15T02:13:20.896Z,100075.13
2023-04-15T02:15:49.622Z,100075.97
2023-04-15T02:18:19.018Z,100072.97
2023-04-15T02:20:47.150Z,100076.16
2023-04-15T02:23:15.679Z,100081.84
2023-04-15T02:25:43.640Z,100078.47
2023-04-15T02:28:21.830Z,100083.00
2023-04-15T02:30:52.744Z,100077.31
2023-04-15T02:33:23.037Z,100077.81
2023-04-15T02:35:51.040Z,100076.31
2023-04-15T02:38:19.057Z,100076.97
2023-04-15T02:40:49.620Z,100071.75
2023-04-15T02:43:18.218Z,100080.16
2023-04-15T02:45:48.099Z,100077.16
2023-04-15T02:48:18.019Z,100085.19
2023-04-15T02:50:47.895Z,100083.19
2023-04-15T02:53:16.098Z,100082.16
2023-04-15T02:55:44.081Z,100086.38
2023-04-15T02:58:12.080Z,100083.84
2023-04-15T03:00:40.013Z,100084.19
2023-04-15T03:03:08.410Z,100085.53
2023-04-15T03:05:38.919Z,100090.06
2023-04-15T03:08:08.193Z,100093.56
2023-04-15T03:10:36.176Z,100089.56
2023-04-15T03:13:04.148Z,100087.69
2023-04-15T03:15:33.872Z,100089.91
2023-04-15T03:18:01.611Z,100084.19
2023-04-15T03:20:29.672Z,100086.19
2023-04-15T03:22:57.680Z,100078.50
2023-04-15T03:25:27.041Z,100084.38
2023-04-15T03:27:54.993Z,100079.16
2023-04-15T03:30:22.970Z,100089.56
2023-04-15T03:32:51.611Z,100090.88
2023-04-15T03:35:19.550Z,100087.88
2023-04-15T03:37:49.086Z,100089.06
2023-04-15T03:40:17.142Z,100097.44
2023-04-15T03:42:46.518Z,100089.56
2023-04-15T03:45:14.450Z,100090.22
2023-04-15T03:47:42.408Z,100093.72
2023-04-15T03:50:11.166Z,100088.06
2023-04-15T03:52:39.334Z,100089.72
2023-04-15T03:55:08.404Z,100097.78
2023-04-15T03:57:38.988Z,100094.25
2023-04-15T04:00:10.620Z,100090.41
2023-04-15T04:02:39.374Z,100083.00
2023-04-15T04:05:08.181Z,100091.25
2023-04-15T04:07:36.551Z,100086.50
2023-04-15T04:10:04.878Z,100094.56
2023-04-15T04:12:32.867Z,100093.22
2023-04-15T04:15:00.877Z,100098.59
2023-04-15T04:17:30.372Z,100098.13
2023-04-15T04:19:58.337Z,100103.00
2023-04-15T04:22:26.455Z,100102.66
2023-04-15T04:24:54.374Z,100099.13
2023-04-15T04:27:22.265Z,100102.94
2023-04-15T04:29:50.211Z,100100.97
2023-04-15T04:32:18.412Z,100108.03
2023-04-15T04:34:48.123Z,100093.94
2023-04-15T04:37:16.098Z,100102.84
2023-04-15T04:39:44.059Z,100101.66
2023-04-15T04:42:12.121Z,100111.53
2023-04-15T04:44:40.301Z,100112.38
2023-04-15T04:47:08.540Z,100107.34
2023-04-15T04:49:36.782Z,100106.50
2023-04-15T04:52:06.486Z,100102.47
2023-04-15T04:54:34.271Z,100117.25
2023-04-15T04:57:02.443Z,100117.91
2023-04-15T04:59:31.000Z,100122.28
2023-04-15T05:01:59.077Z,100118.06
2023-04-15T05:04:27.293Z,100116.06
2023-04-15T05:06:55.173Z,100123.94
2023-04-15T05:09:24.675Z,100120.75
2023-04-15T05:11:52.715Z,100132.84
2023-04-15T05:14:22.945Z,100124.78
2023-04-15T05:16:51.875Z,100129.47
2023-04-15T05:19:19.838Z,100131.16
2023-04-15T05:21:48.051Z,100128.31
2023-04-15T05:24:16.808Z,100131.50
2023-04-15T05:26:46.334Z,100134.50
2023-04-15T05:29:14.270Z,100131.13
2023-04-15T05:31:42.551Z,100131.63
2023-04-15T05:34:11.662Z,100134.13
2023-04-15T05:36:39.705Z,100144.53
2023-04-15T05:39:07.672Z,100137.31
2023-04-15T05:41:36.017Z,100134.47
2023-04-15T05:44:06.171Z,100142.19
2023-04-15T05:46:34.239Z,100139.00
2023-04-15T05:49:02.663Z,100144.19
2023-04-15T05:51:31.185Z,100143.50
2023-04-15T05:53:59.114Z,100147.03
2023-04-15T05:56:27.335Z,100146.34
2023-04-15T05:58:55.343Z,100147.31
2023-04-15T06:01:25.360Z,100153.53
2023-04-15T06:03:53.547Z,100151.47
2023-04-15T06:06:21.651Z,100157.84
2023-04-15T06:08:49.542Z,100151.94
2023-04-15T06:11:17.565Z,100146.56
2023-04-15T06:13:45.508Z,100146.03
2023-04-15T06:16:13.584Z,100141.13
2023-04-15T06:18:43.020Z,100150.00
2023-04-15T06:21:11.570Z,100150.97
2023-04-15T06:23:41.129Z,100145.03
2023-04-15T06:26:10.553Z,100149.88
2023-04-15T06:28:38.482Z,100149.56
2023-04-15T06:31:06.610Z,100154.72
2023-04-15T06:33:34.485Z,100143.06
2023-04-15T06:36:03.727Z,100148.22
2023-04-15T06:38:31.675Z,100143.75
2023-04-15T06:40:59.907Z,100149.31
2023-04-15T06:43:27.856Z,100153.41
2023-04-15T06:45:56.501Z,100154.84
2023-04-15T06:48:24.490Z,100155.47
2023-04-15T06:50:52.549Z,100167.47
2023-04-15T06:53:22.138Z,100168.44
2023-04-15T06:55:50.394Z,100163.75
2023-04-15T06:58:18.364Z,100166.84
2023-04-15T07:00:46.503Z,100176.13
2023-04-15T07:03:15.097Z,100173.00
2023-04-15T07:05:43.361Z,100178.31
2023-04-15T07:08:11.472Z,100182.75
2023-04-15T07:10:41.446Z,100184.56
2023-04-15T07:13:09.441Z,100190.88
2023-04-15T07:15:37.413Z,100192.59
2023-04-15T07:18:05.319Z,100193.44
2023-04-15T07:20:33.248Z,100196.66
2023-04-15T07:23:01.221Z,100198.34
2023-04-15T07:25:29.186Z,100205.03
2023-04-15T07:27:58.591Z,100200.50
2023-04-15T07:30:26.595Z,100204.50
2023-04-15T07:32:55.134Z,100208.75
2023-04-15T07:35:23.421Z,100214.34
2023-04-15T07:37:52.185Z,100212.31
2023-04-15T07:40:20.082Z,100216.22
2023-04-15T07:42:49.330Z,100230.94
2023-04-15T07:45:18.937Z,100233.75
2023-04-15T07:47:46.987Z,100226.50
2023-04-15T07:50:16.170Z,100228.16
2023-04-15T07:52:44.152Z,100229.38
2023-04-15T07:55:12.151Z,100222.69
2023-04-15T07:57:40.116Z,100221.91
2023-04-15T08:00:10.122Z,100231.16
2023-04-15T08:02:40.681Z,100224.53
2023-04-15T08:05:10.601Z,100231.53
2023-04-15T08:07:38.867Z,100228.50
2023-04-15T08:10:08.622Z,100238.31
2023-04-15T08:12:37.034Z,100230.78
2023-04-15T08:15:06.603Z,100237.66
2023-04-15T08:17:34.534Z,100237.56
2023-04-15T08:20:05.798Z,100239.28
2023-04-15T08:22:34.414Z,100237.84
2023-04-15T08:25:02.443Z,100244.16
2023-04-15T08:27:30.334Z,100247.78
2023-04-15T08:29:58.472Z,100251.81
2023-04-15T08:32:26.716Z,100253.66
2023-04-15T08:34:54.948Z,100253.31
2023-04-15T08:37:24.241Z,100247.16
2023-04-15T08:39:52.185Z,100250.41
2023-04-15T08:42:32.346Z,100253.03
2023-04-15T08:45:02.433Z,100254.88
2023-04-15T08:47:32.821Z,100253.63
2023-04-15T08:50:04.613Z,100251.22
2023-04-15T08:52:34.232Z,100258.31
2023-04-15T08:55:04.823Z,100252.38
2023-04-15T08:57:34.372Z,100256.50
2023-04-15T09:00:05.881Z,100256.38
2023-04-15T09:02:34.047Z,100266.09
2023-04-15T09:05:04.951Z,100269.78
2023-04-15T09:07:36.549Z,100269.41
2023-04-15T09:10:05.497Z,100272.28
2023-04-15T09:12:36.803Z,100273.91
2023-04-15T09:15:05.891Z,100266.13
2023-04-15T09:17:35.495Z,100265.53
2023-04-15T09:20:12.966Z,100273.63
2023-04-15T09:22:43.320Z,100278.16
2023-04-15T09:25:29.204Z,100273.38
2023-04-15T09:27:59.285Z,100279.59
2023-04-15T09:30:29.199Z,100283.44
2023-04-15T09:33:00.517Z,100282.78
2023-04-15T09:35:29.164Z,100284.13
2023-04-15T09:38:05.424Z,100285.50
2023-04-15T09:40:35.893Z,100284.63
2023-04-15T09:43:05.292Z,100291.63
2023-04-15T09:45:35.719Z,100286.41
2023-04-15T09:48:19.218Z,100293.31
2023-04-15T09:50:48.819Z,100291.44
2023-04-15T09:53:23.368Z,100296.63
2023-04-15T09:55:54.516Z,100299.34
2023-04-15T09:58:25.063Z,100302.13
2023-04-15T10:00:55.286Z,100304.09
2023-04-15T10:03:25.941Z,100303.97
2023-04-15T10:05:56.742Z,100308.81
2023-04-15T10:08:28.725Z,100302.78
2023-04-15T10:10:57.306Z,100310.31
2023-04-15T10:13:28.577Z,100314.06
2023-04-15T10:16:00.446Z,100309.38
2023-04-15T10:18:33.184Z,100315.59
2023-04-15T10:21:02.918Z,100320.00
2023-04-15T10:23:32.678Z,100319.13
2023-04-15T10:26:01.632Z,100318.53
2023-04-15T10:28:29.816Z,100323.75
2023-04-15T10:30:59.295Z,100323.06
2023-04-15T10:33:29.737Z,100325.06
2023-04-15T10:35:58.604Z,100320.00
2023-04-15T10:38:36.740Z,100321.53
2023-04-15T10:41:20.820Z,100323.84
2023-04-15T10:43:52.995Z,100329.72
2023-04-15T10:46:25.560Z,100337.63
2023-04-15T10:48:55.489Z,100328.19
2023-04-15T10:51:31.937Z,100333.94
2023-04-15T10:54:02.203Z,100325.53
2023-04-15T10:56:32.295Z,100327.81
2023-04-15T10:59:02.414Z,100330.53
2023-04-15T11:01:56.391Z,100334.19
2023-04-15T11:04:53.785Z,100340.06
2023-04-15T11:07:54.783Z,100344.59
2023-04-15T11:10:55.073Z,100343.25
2023-04-15T11:13:29.355Z,100349.13
2023-04-15T11:16:02.955Z,100348.16
2023-04-15T11:18:34.279Z,100347.34
2023-04-15T11:21:08.415Z,100355.00
2023-04-15T11:23:40.693Z,100354.56
2023-04-15T11:26:12.447Z,100361.31
2023-04-15T11:28:42.430Z,100361.84
2023-04-15T11:31:12.240Z,100362.53
2023-04-15T11:33:48.940Z,100364.19
2023-04-15T11:36:19.021Z,100364.88
2023-04-15T11:38:49.106Z,100361.50
2023-04-15T11:41:23.151Z,100363.88
2023-04-15T11:43:51.774Z,100370.91
2023-04-15T11:46:21.467Z,100373.25
2023-04-15T11:48:49.356Z,100381.16
2023-04-15T11:51:17.552Z,100385.19
2023-04-15T11:53:48.484Z,100390.06
2023-04-15T11:56:21.396Z,100391.47
2023-04-15T11:58:52.903Z,100390.13
2023-04-15T12:01:21.115Z,100391.34
2023-04-15T12:03:50.757Z,100394.00
2023-04-15T12:06:20.847Z,100391.47
2023-04-15T12:09:00.430Z,100393.00
2023-04-15T12:11:38.882Z,100403.59
2023-04-15T12:14:17.786Z,100402.59
2023-04-15T12:16:50.102Z,100405.13
2023-04-15T12:19:26.251Z,100410.50
2023-04-15T12:22:00.770Z,100406.47
2023-04-15T12:24:33.344Z,100413.16
2023-04-15T12:27:08.484Z,100414.13
2023-04-15T12:29:39.332Z,100413.28
2023-04-15T12:32:09.642Z,100417.63
2023-04-15T12:34:40.285Z,100422.81
2023-04-15T12:37:14.267Z,100425.50
2023-04-15T12:39:44.865Z,100422.28
2023-04-15T12:42:14.378Z,100422.94
2023-04-15T12:44:43.081Z,100429.34
2023-04-15T12:47:13.309Z,100425.97
2023-04-15T12:49:42.003Z,100431.16
2023-04-15T12:52:10.082Z,100436.06
2023-04-15T12:54:38.130Z,100435.16
2023-04-15T12:57:07.489Z,100442.91
2023-04-15T12:59:37.473Z,100442.06
2023-04-15T13:02:06.049Z,100442.72
2023-04-15T13:04:34.346Z,100443.25
2023-04-15T13:07:03.176Z,100440.41
2023-04-15T13:09:31.267Z,100441.94
2023-04-15T13:11:59.379Z,100454.31
2023-04-15T13:14:28.270Z,100449.59
2023-04-15T13:16:58.107Z,100456.38
2023-04-15T13:19:26.668Z,100455.69
2023-04-15T13:21:55.044Z,100453.19
2023-04-15T13:24:23.200Z,100457.09
2023-04-15T13:26:52.105Z,100458.44
2023-04-15T13:29:20.203Z,100464.78
2023-04-15T13:31:48.435Z,100461.94
2023-04-15T13:34:18.050Z,100466.47
2023-04-15T13:36:46.271Z,100469.84
2023-04-15T13:39:14.441Z,100461.13
2023-04-15T13:41:42.660Z,100467.81
2023-04-15T13:44:12.308Z,100473.88
2023-04-15T13:46:41.929Z,100470.16
2023-04-15T13:49:10.412Z,100477.06
2023-04-15T13:51:40.619Z,100481.09
2023-04-15T13:54:14.270Z,100477.56
2023-04-15T13:56:42.332Z,100487.66
2023-04-15T13:59:10.794Z,100489.00
2023-04-15T14:01:39.550Z,100484.31
2023-04-15T14:04:08.218Z,100486.81
2023-04-15T14:06:36.601Z,100490.00
2023-04-15T14:09:06.614Z,100498.78
2023-04-15T14:11:36.766Z,100497.44
2023-04-15T14:14:05.117Z,100494.75
2023-04-15T14:16:34.138Z,100498.16
2023-04-15T14:19:03.844Z,100500.50
2023-04-15T14:21:33.703Z,100508.44
2023-04-15T14:24:01.937Z,100510.63
2023-04-15T14:26:31.419Z,100508.56
2023-04-15T14:28:59.637Z,100521.50
2023-04-15T14:31:28.030Z,100517.69
2023-04-15T14:33:59.230Z,100525.09
2023-04-15T14:36:28.495Z,100525.75
2023-04-15T14:38:57.014Z,100531.31
2023-04-15T14:41:25.623Z,100533.16
2023-04-15T14:43:55.116Z,100535.19
2023-04-15T14:46:23.406Z,100536.69
2023-04-15T14:48:51.548Z,100534.16
2023-04-15T14:51:19.925Z,100540.91
2023-04-15T14:53:50.587Z,100539.22
2023-04-15T14:56:18.753Z,100544.44
2023-04-15T14:58:47.006Z,100551.84
2023-04-15T15:01:16.783Z,100547.28
2023-04-15T15:03:44.806Z,100554.03
2023-04-15T15:06:13.433Z,100556.19
2023-04-15T15:08:41.604Z,100554.16
2023-04-15T15:11:09.702Z,100554.00
2023-04-15T15:13:40.227Z,100567.31
2023-04-15T15:16:09.004Z,100558.06
2023-04-15T15:18:38.457Z,100567.53
2023-04-15T15:21:06.692Z,100565.50
2023-04-15T15:23:34.561Z,100577.59
2023-04-15T15:26:02.530Z,100576.28
2023-04-15T15:28:30.492Z,100576.59
2023-04-15T15:30:58.498Z,100582.31
2023-04-15T15:33:28.052Z,100584.00
2023-04-15T15:35:59.114Z,100583.13
2023-04-15T15:38:27.316Z,100589.41
2023-04-15T15:40:55.288Z,100585.00
2023-04-15T15:43:23.150Z,100588.66
2023-04-15T15:45:52.838Z,100587.19
2023-04-15T15:48:20.937Z,100581.97
2023-04-15T15:50:48.980Z,100589.69
2023-04-15T15:53:20.842Z,100595.75
2023-04-15T15:55:49.158Z,100592.06
2023-04-15T15:58:17.089Z,100598.81
2023-04-15T16:00:45.282Z,100599.78
2023-04-15T16:03:13.356Z,100594.25
2023-04-15T16:05:41.422Z,100604.53
2023-04-15T16:08:09.622Z,100605.72
2023-04-15T16:10:39.279Z,100610.41
2023-04-15T16:13:07.380Z,100613.97
2023-04-15T16:15:35.503Z,100609.25
2023-04-15T16:18:03.509Z,100613.63
2023-04-15T16:20:31.607Z,100618.00
2023-04-15T16:23:00.300Z,100618.50
2023-04-15T16:25:28.322Z,100618.53
2023-04-15T16:28:05.382Z,100621.03
2023-04-15T16:30:41.271Z,100627.09
2023-04-15T16:33:10.613Z,100626.91
2023-04-15T16:35:38.522Z,100631.13
2023-04-15T16:38:06.481Z,100631.28
2023-04-15T16:40:34.909Z,100633.31
2023-04-15T16:43:04.481Z,100633.31
2023-04-15T16:45:32.403Z,100632.81
2023-04-15T16:48:00.416Z,100638.53
2023-04-15T16:50:28.788Z,100647.06
2023-04-15T16:52:56.888Z,100645.75
2023-04-15T16:55:24.882Z,100645.25
2023-04-15T16:58:01.883Z,100646.63
2023-04-15T17:00:36.135Z,100650.00
2023-04-15T17:03:04.809Z,100654.69
2023-04-15T17:05:32.924Z,100654.19
2023-04-15T17:08:01.112Z,100658.06
2023-04-15T17:10:29.276Z,100663.09
2023-04-15T17:12:58.801Z,100664.78
2023-04-15T17:15:27.288Z,100666.97
2023-04-15T17:17:56.710Z,100669.00
2023-04-15T17:20:24.733Z,100671.53
2023-04-15T17:22:52.679Z,100676.38
2023-04-15T17:25:20.817Z,100689.31
2023-04-15T17:27:48.826Z,100686.81
2023-04-15T17:30:16.774Z,100689.69
2023-04-15T17:32:44.793Z,100693.06
2023-04-15T17:35:14.257Z,100692.03
2023-04-15T17:37:42.275Z,100691.84
2023-04-15T17:40:11.410Z,100703.28
2023-04-15T17:42:39.387Z,100707.50
2023-04-15T17:45:09.108Z,100712.91
2023-04-15T17:47:36.898Z,100711.50
2023-04-15T17:50:05.152Z,100716.88
2023-04-15T17:52:34.705Z,100713.34
2023-04-15T17:55:02.691Z,100720.94
2023-04-15T17:57:30.892Z,100725.97
2023-04-15T17:59:58.928Z,100728.50
2023-04-15T18:02:27.106Z,100731.53
2023-04-15T18:04:55.412Z,100740.13
2023-04-15T18:07:23.526Z,100736.56
2023-04-15T18:09:55.784Z,100736.75
2023-04-15T18:12:23.796Z,100741.28
2023-04-15T18:15:12.484Z,100748.19
2023-04-15T18:17:43.298Z,100748.19
2023-04-15T18:20:12.749Z,100749.34
2023-04-15T18:22:59.688Z,100753.88
2023-04-15T18:25:33.967Z,100745.78
2023-04-15T18:28:01.994Z,100759.25
2023-04-15T18:30:30.048Z,100763.31
2023-04-15T18:32:58.142Z,100773.75
2023-04-15T18:35:26.082Z,100773.06
2023-04-15T18:37:54.191Z,100769.03
2023-04-15T18:40:22.106Z,100781.47
2023-04-15T18:42:52.493Z,100788.22
2023-04-15T18:45:20.540Z,100788.50
2023-04-15T18:47:48.789Z,100795.94
2023-04-15T18:50:16.874Z,100795.94
2023-04-15T18:52:44.935Z,100789.19
2023-04-15T18:55:13.238Z,100798.56
2023-04-15T18:57:44.733Z,100798.41
2023-04-15T19:00:15.984Z,100794.22
2023-04-15T19:02:44.144Z,100794.56
2023-04-15T19:05:12.276Z,100798.75
2023-04-15T19:07:41.111Z,100811.22
2023-04-15T19:10:09.960Z,100810.50
2023-04-15T19:12:38.015Z,100814.72
2023-04-15T19:15:07.105Z,100813.72
2023-04-15T19:17:36.565Z,100818.09
2023-04-15T19:20:05.001Z,100819.78
2023-04-15T19:22:33.122Z,100826.16
2023-04-15T19:25:01.204Z,100828.22
2023-04-15T19:27:29.195Z,100834.56
2023-04-15T19:29:57.370Z,100834.06
2023-04-15T19:32:25.369Z,100826.34
2023-04-15T19:34:54.970Z,100832.03
2023-04-15T19:37:23.100Z,100831.19
2023-04-15T19:39:51.269Z,100837.09
2023-04-15T19:42:19.223Z,100843.28
2023-04-15T19:44:47.214Z,100847.50
2023-04-15T19:47:15.446Z,100854.03
2023-04-15T19:49:43.518Z,100850.19
2023-04-15T19:52:13.116Z,100853.56
2023-04-15T19:54:41.389Z,100851.66
2023-04-15T19:57:09.488Z,100846.97
2023-04-15T19:59:37.698Z,100860.41
2023-04-15T20:02:05.968Z,100858.75
2023-04-15T20:04:34.051Z,100848.47
2023-04-15T20:07:02.141Z,100854.03
2023-04-15T20:09:31.430Z,100858.44
2023-04-15T20:12:48.058Z,100857.75
2023-04-15T20:14:47.740Z,100854.53
2023-04-15T20:17:15.972Z,100859.75
2023-04-15T20:19:43.881Z,100851.34
2023-04-15T20:22:11.830Z,100866.44
2023-04-15T20:24:41.139Z,100869.66
2023-04-15T20:27:09.284Z,100864.78
2023-04-15T20:29:37.758Z,100870.34
2023-04-15T20:32:06.665Z,100865.13
2023-04-15T20:34:35.052Z,100868.66
2023-04-15T20:37:03.028Z,100877.25
2023-04-15T20:39:31.179Z,100876.41
2023-04-15T20:42:01.271Z,100876.56
2023-04-15T20:44:29.216Z,100873.91
2023-04-15T20:46:57.427Z,100881.63
2023-04-15T20:49:25.651Z,100875.38
2023-04-15T20:51:53.551Z,100881.63
2023-04-15T20:54:21.842Z,100874.56
2023-04-15T20:56:49.799Z,100880.16
2023-04-15T20:59:19.310Z,100880.16
2023-04-15T21:01:47.689Z,100889.00
2023-04-15T21:04:15.729Z,100883.00
2023-04-15T21:06:43.719Z,100884.69
2023-04-15T21:09:11.803Z,100888.84
2023-04-15T21:11:57.530Z,100892.38
2023-04-15T21:14:28.993Z,100891.25
2023-04-15T21:16:58.439Z,100890.72
2023-04-15T21:19:26.337Z,100892.88
2023-04-15T21:21:54.268Z,100896.41
2023-04-15T21:24:22.139Z,100902.78
2023-04-15T21:26:50.108Z,100902.63
2023-04-15T21:29:18.203Z,100913.03
2023-04-15T21:31:47.887Z,100906.50
2023-04-15T21:34:15.651Z,100910.50
2023-04-15T21:36:43.663Z,100914.56
2023-04-15T21:39:11.563Z,100919.78
2023-04-15T21:41:39.575Z,100917.28
2023-04-15T21:44:07.518Z,100927.84
2023-04-15T21:46:36.010Z,100921.47
2023-04-15T21:49:06.877Z,100927.53
2023-04-15T21:51:35.153Z,100931.41
2023-04-15T21:54:03.108Z,100922.47
2023-04-15T21:56:30.946Z,100934.38
2023-04-15T21:58:59.775Z,100930.88
2023-04-15T22:01:27.927Z,100935.03
2023-04-15T22:03:56.238Z,100937.03
2023-04-15T22:06:25.555Z,100947.00
2023-04-15T22:08:57.403Z,100947.31
2023-04-15T22:11:28.188Z,100947.78
2023-04-15T22:13:57.685Z,100949.16
2023-04-15T22:16:26.776Z,100948.69
2023-04-15T22:18:55.309Z,100944.63
2023-04-15T22:21:23.314Z,100954.56
2023-04-15T22:24:32.862Z,100960.59
2023-04-15T22:26:42.225Z,100956.38
2023-04-15T22:29:10.544Z,100963.59
2023-04-15T22:31:38.526Z,100961.94
2023-04-15T22:34:06.486Z,100972.69
2023-04-15T22:36:34.444Z,100964.78
2023-04-15T22:39:04.112Z,100976.00
2023-04-15T22:41:32.329Z,100975.00
2023-04-15T22:44:00.195Z,100976.84
2023-04-15T22:46:28.182Z,100976.34
2023-04-15T22:48:56.095Z,100985.13
2023-04-15T22:51:26.941Z,100979.06
2023-04-15T22:53:55.188Z,100988.66
2023-04-15T22:56:24.805Z,100988.66
2023-04-15T22:58:53.508Z,100995.19
2023-04-15T23:01:21.623Z,100999.44
2023-04-15T23:03:57.069Z,100994.22
2023-04-15T23:06:28.127Z,100996.75
2023-04-15T23:08:56.073Z,101008.09
2023-04-15T23:11:25.450Z,101006.44
2023-04-15T23:13:53.427Z,101002.72
2023-04-15T23:16:21.440Z,101015.94
2023-04-15T23:18:49.518Z,101001.59
2023-04-15T23:21:17.853Z,101009.72
2023-04-15T23:23:45.778Z,101010.13
2023-04-15T23:26:13.774Z,101007.50
2023-04-15T23:28:43.139Z,101014.88
2023-04-15T23:31:11.117Z,101015.19
2023-04-15T23:33:39.111Z,101012.66
2023-04-15T23:36:07.503Z,101013.25
2023-04-15T23:38:35.554Z,101012.72
2023-04-15T23:41:03.495Z,101011.97
2023-04-15T23:43:31.392Z,101015.69
2023-04-15T23:46:00.705Z,101025.47
2023-04-15T23:48:30.021Z,101013.97
2023-04-15T23:50:58.000Z,101019.41
2023-04-15T23:53:25.908Z,101021.16
2023-04-15T23:55:54.212Z,101021.81
2023-04-15T23:58:22.169Z,101019.13
